Airfield :
LOGIN :

Register | Disclaimer

   EN    FR    IT 

 










Legend :    VFR   Marginal VFR   IFR   Intensive IFR   Very Intensive IFR
Visi :
Ceiling :
>= 8 km
>= 3000ft
5 to 8 km
1000 to 3000 ft
1500m to 5 km
500 to 1000 ft
800 to 1500m
200 to 500 ft
< 800m
< 200 ft
Symbols :   Thunderstorms  Fog  Heavy snow  Heavy precipitations  Wind > 20 kt
SIGMETs :     Misc.  Thunderstorms  Icing  Turbulence  Mountain Waves  Volcanic Ashes






- Airport Elevation : 506 ft
- IATA code : GOT


ESGG - Landvetter

CURRENT METAR :
  • 172250Z 21005KT 9999 OVC025 09/08 Q1009

EXPIRED METARs :
  • 172220Z 21006KT 9999 FEW012 OVC023 09/08 Q1008
  • 172150Z 21008KT 3500 +DZ OVC017 10/09 Q1008
  • 172120Z 19004KT 6000 -DZ FEW004 OVC025 10/10 Q1008
  • 172050Z 19005KT 8000 SCT032 BKN044 OVC062 10/09 Q1008
  • 172020Z 19005KT 9000 SCT048 OVC061 10/10 Q1008
  • 171950Z 19006KT 9999 SCT047 11/10 Q1008

TAF TAF ESGG
Valid from the 17 at 18:00 until the 18 at 18:00 UTC


171730Z 1718/1818 17005KT 9999 SCT003 BKN040
PROB40 1718/1801 1400 BR BKN003
BECMG 1801/1803 0200 FG VV002
BECMG 1807/1809 9999 NSW SCT040
TEMPO 1813/1818 3000 RADZ BKN004



MET'MAP, your aeronautical weather chart ! - Copyright ORBIFLY December 2007 - Disclaimer

ORBIFLY MET'MAP TEAM :

Programming & Development : Alexandra Zaïnal
Concept & Development : Baudouin d'Aumeries
Co-Development & Prog : Marc-Olivier Méhu
Technical & hardware support : Manuel Goepfert

Contact : metmap@orbifly.com




SOURCES & CREDITS :

   NOAA